Terminal Aerodrome Forecast
Issued by NWS Jackson, KY

Home | Current Version | Previous Version | Text Only | Print | Product List | Glossary On
Versions: 1 2 3 4 5 6 7 8 9 10 11 12 13 14 15
000
FTUS43 KJKL 301700
TAFLOZ
TAF
KLOZ 301720Z 3018/3118 20007KT P6SM SCT250
     FM302000 21008KT P6SM VCTS BKN050CB
     FM310300 18005KT 6SM SHRA BR VCTS SCT025 BKN040CB=

USA.gov is the U.S. government's official web portal to all federal, state and local government web resources and services.